sensor_id;sensor_type;location;lat;lon;timestamp;pressure;altitude;pressure_sealevel;temperature;humidity
51496;BME280;37572;52.094;4.870;2022-09-21T00:00:36;102662.56;;;10.81;98.54
51496;BME280;37572;52.094;4.870;2022-09-21T00:03:01;102660.56;;;10.83;98.80
51496;BME280;37572;52.094;4.870;2022-09-21T00:05:26;102659.69;;;10.82;99.43
51496;BME280;37572;52.094;4.870;2022-09-21T00:07:52;102657.53;;;10.86;99.45
51496;BME280;37572;52.094;4.870;2022-09-21T00:10:19;102657.84;;;10.91;100.00
51496;BME280;37572;52.094;4.870;2022-09-21T00:12:45;102657.19;;;10.97;100.00
51496;BME280;37572;52.094;4.870;2022-09-21T00:15:13;102656.19;;;11.06;100.00
51496;BME280;37572;52.094;4.870;2022-09-21T00:17:39;102657.88;;;11.16;100.00
51496;BME280;37572;52.094;4.870;2022-09-21T00:20:05;102657.19;;;11.22;99.69
51496;BME280;37572;52.094;4.870;2022-09-21T00:22:31;102652.50;;;11.24;99.89
51496;BME280;37572;52.094;4.870;2022-09-21T00:24:57;102648.59;;;11.27;99.47
51496;BME280;37572;52.094;4.870;2022-09-21T00:27:22;102654.16;;;11.25;99.01
51496;BME280;37572;52.094;4.870;2022-09-21T00:29:57;102651.47;;;11.25;98.78
51496;BME280;37572;52.094;4.870;2022-09-21T00:32:25;102656.38;;;11.21;98.40
51496;BME280;37572;52.094;4.870;2022-09-21T00:34:51;102651.13;;;11.20;98.42
51496;BME280;37572;52.094;4.870;2022-09-21T00:37:19;102650.44;;;11.18;97.80
51496;BME280;37572;52.094;4.870;2022-09-21T00:39:45;102653.13;;;11.18;98.06
51496;BME280;37572;52.094;4.870;2022-09-21T00:42:19;102644.38;;;11.16;97.68
51496;BME280;37572;52.094;4.870;2022-09-21T00:44:45;102651.66;;;11.15;97.85
51496;BME280;37572;52.094;4.870;2022-09-21T00:47:14;102660.41;;;11.17;97.66
51496;BME280;37572;52.094;4.870;2022-09-21T00:49:42;102662.25;;;11.17;97.53
51496;BME280;37572;52.094;4.870;2022-09-21T00:52:10;102655.00;;;11.17;97.42
51496;BME280;37572;52.094;4.870;2022-09-21T00:54:45;102658.03;;;11.14;97.49
51496;BME280;37572;52.094;4.870;2022-09-21T00:57:14;102653.00;;;11.03;97.18
51496;BME280;37572;52.094;4.870;2022-09-21T00:59:42;102658.69;;;10.92;95.52
51496;BME280;37572;52.094;4.870;2022-09-21T01:02:08;102656.00;;;10.83;96.25
51496;BME280;37572;52.094;4.870;2022-09-21T01:04:34;102659.19;;;10.79;95.89
51496;BME280;37572;52.094;4.870;2022-09-21T01:07:02;102654.63;;;10.71;95.91
51496;BME280;37572;52.094;4.870;2022-09-21T01:09:30;102653.09;;;10.68;95.88
51496;BME280;37572;52.094;4.870;2022-09-21T01:12:09;102652.25;;;10.68;95.93
51496;BME280;37572;52.094;4.870;2022-09-21T01:20:39;102650.91;;;10.64;96.66
51496;BME280;37572;52.094;4.870;2022-09-21T01:23:15;102652.09;;;10.61;97.35
51496;BME280;37572;52.094;4.870;2022-09-21T01:30:58;102649.22;;;10.63;98.00
51496;BME280;37572;52.094;4.870;2022-09-21T01:33:32;102653.59;;;10.64;97.97
51496;BME280;37572;52.094;4.870;2022-09-21T01:36:03;102652.75;;;10.63;97.40
51496;BME280;37572;52.094;4.870;2022-09-21T01:38:35;102650.56;;;10.59;97.76
51496;BME280;37572;52.094;4.870;2022-09-21T01:41:04;102657.13;;;10.56;97.54
51496;BME280;37572;52.094;4.870;2022-09-21T01:43:34;102652.06;;;10.53;97.36
51496;BME280;37572;52.094;4.870;2022-09-21T01:46:01;102651.38;;;10.51;97.53
51496;BME280;37572;52.094;4.870;2022-09-21T01:48:32;102651.56;;;10.49;97.46
51496;BME280;37572;52.094;4.870;2022-09-21T01:51:01;102660.63;;;10.48;97.02
51496;BME280;37572;52.094;4.870;2022-09-21T01:53:53;102650.84;;;10.47;97.20
51496;BME280;37572;52.094;4.870;2022-09-21T01:56:29;102654.75;;;10.45;97.86
51496;BME280;37572;52.094;4.870;2022-09-21T01:59:06;102651.00;;;10.46;97.51
51496;BME280;37572;52.094;4.870;2022-09-21T02:01:38;102648.47;;;10.44;97.34
51496;BME280;37572;52.094;4.870;2022-09-21T02:04:09;102649.50;;;10.43;97.72
51496;BME280;37572;52.094;4.870;2022-09-21T02:06:37;102642.44;;;10.42;98.03
51496;BME280;37572;52.094;4.870;2022-09-21T02:09:04;102645.44;;;10.39;97.50
51496;BME280;37572;52.094;4.870;2022-09-21T02:11:29;102648.31;;;10.38;97.71
51496;BME280;37572;52.094;4.870;2022-09-21T02:13:54;102650.16;;;10.37;98.92
51496;BME280;37572;52.094;4.870;2022-09-21T02:16:33;102649.13;;;10.38;98.50
51496;BME280;37572;52.094;4.870;2022-09-21T02:21:45;102653.19;;;10.34;97.86
51496;BME280;37572;52.094;4.870;2022-09-21T02:30:08;102659.69;;;10.31;97.86
51496;BME280;37572;52.094;4.870;2022-09-21T02:38:34;102659.44;;;10.08;96.44
51496;BME280;37572;52.094;4.870;2022-09-21T02:43:36;102651.44;;;9.90;95.62
51496;BME280;37572;52.094;4.870;2022-09-21T02:46:17;102641.47;;;9.82;95.51
51496;BME280;37572;52.094;4.870;2022-09-21T02:48:47;102648.00;;;9.80;95.98
51496;BME280;37572;52.094;4.870;2022-09-21T02:51:15;102640.97;;;9.79;96.79
51496;BME280;37572;52.094;4.870;2022-09-21T02:53:42;102639.94;;;9.80;97.28
51496;BME280;37572;52.094;4.870;2022-09-21T02:56:09;102641.63;;;9.81;96.77
51496;BME280;37572;52.094;4.870;2022-09-21T02:58:39;102638.09;;;9.80;97.02
51496;BME280;37572;52.094;4.870;2022-09-21T03:01:09;102643.81;;;9.77;97.08
51496;BME280;37572;52.094;4.870;2022-09-21T03:03:35;102640.72;;;9.72;96.77
51496;BME280;37572;52.094;4.870;2022-09-21T03:06:00;102636.84;;;9.67;96.88
51496;BME280;37572;52.094;4.870;2022-09-21T03:08:26;102636.16;;;9.64;97.11
51496;BME280;37572;52.094;4.870;2022-09-21T03:10:51;102637.50;;;9.60;97.27
51496;BME280;37572;52.094;4.870;2022-09-21T03:13:18;102639.31;;;9.60;96.85
51496;BME280;37572;52.094;4.870;2022-09-21T03:15:43;102634.63;;;9.62;96.88
51496;BME280;37572;52.094;4.870;2022-09-21T03:18:10;102638.69;;;9.66;97.29
51496;BME280;37572;52.094;4.870;2022-09-21T03:20:39;102629.47;;;9.69;97.89
51496;BME280;37572;52.094;4.870;2022-09-21T03:23:06;102644.44;;;9.71;98.76
51496;BME280;37572;52.094;4.870;2022-09-21T03:25:31;102644.63;;;9.78;99.49
51496;BME280;37572;52.094;4.870;2022-09-21T03:27:57;102643.31;;;9.82;99.81
51496;BME280;37572;52.094;4.870;2022-09-21T03:30:24;102649.38;;;9.84;99.47
51496;BME280;37572;52.094;4.870;2022-09-21T03:32:51;102653.06;;;9.83;99.13
51496;BME280;37572;52.094;4.870;2022-09-21T03:35:21;102654.88;;;9.74;98.49
51496;BME280;37572;52.094;4.870;2022-09-21T03:37:47;102656.25;;;9.52;96.19
51496;BME280;37572;52.094;4.870;2022-09-21T03:40:14;102655.75;;;9.31;93.25
51496;BME280;37572;52.094;4.870;2022-09-21T03:42:41;102658.84;;;9.18;93.03
51496;BME280;37572;52.094;4.870;2022-09-21T03:45:07;102652.72;;;9.07;93.09
51496;BME280;37572;52.094;4.870;2022-09-21T03:47:34;102659.16;;;8.97;93.59
51496;BME280;37572;52.094;4.870;2022-09-21T03:49:59;102656.63;;;8.77;92.52
51496;BME280;37572;52.094;4.870;2022-09-21T03:52:24;102666.03;;;8.63;92.20
51496;BME280;37572;52.094;4.870;2022-09-21T03:54:50;102661.75;;;8.43;92.37
51496;BME280;37572;52.094;4.870;2022-09-21T03:57:15;102655.41;;;8.44;94.99
51496;BME280;37572;52.094;4.870;2022-09-21T03:59:40;102657.22;;;8.43;96.48
51496;BME280;37572;52.094;4.870;2022-09-21T04:02:06;102650.47;;;8.49;97.08
51496;BME280;37572;52.094;4.870;2022-09-21T04:04:31;102655.38;;;8.53;98.03
51496;BME280;37572;52.094;4.870;2022-09-21T04:06:57;102648.88;;;8.56;98.30
51496;BME280;37572;52.094;4.870;2022-09-21T04:09:23;102650.94;;;8.62;98.60
51496;BME280;37572;52.094;4.870;2022-09-21T04:11:48;102653.84;;;8.69;99.35
51496;BME280;37572;52.094;4.870;2022-09-21T04:14:14;102655.78;;;8.77;100.00
51496;BME280;37572;52.094;4.870;2022-09-21T04:16:39;102647.09;;;8.83;99.23
51496;BME280;37572;52.094;4.870;2022-09-21T04:19:04;102653.00;;;8.86;99.99
51496;BME280;37572;52.094;4.870;2022-09-21T04:21:30;102654.03;;;8.85;99.04
51496;BME280;37572;52.094;4.870;2022-09-21T04:23:55;102655.94;;;8.75;98.25
51496;BME280;37572;52.094;4.870;2022-09-21T04:26:26;102656.16;;;8.64;96.82
51496;BME280;37572;52.094;4.870;2022-09-21T04:28:53;102656.63;;;8.59;96.48
51496;BME280;37572;52.094;4.870;2022-09-21T04:31:19;102657.16;;;8.63;97.33
51496;BME280;37572;52.094;4.870;2022-09-21T04:33:49;102653.03;;;8.68;97.95
51496;BME280;37572;52.094;4.870;2022-09-21T04:36:18;102658.31;;;8.78;98.38
51496;BME280;37572;52.094;4.870;2022-09-21T04:38:44;102656.56;;;8.87;98.04
51496;BME280;37572;52.094;4.870;2022-09-21T04:41:11;102659.78;;;8.90;98.74
51496;BME280;37572;52.094;4.870;2022-09-21T04:43:37;102662.16;;;8.93;98.40
51496;BME280;37572;52.094;4.870;2022-09-21T04:46:07;102661.16;;;8.95;97.95
51496;BME280;37572;52.094;4.870;2022-09-21T04:48:33;102663.41;;;8.99;98.69
51496;BME280;37572;52.094;4.870;2022-09-21T04:50:59;102666.59;;;9.03;98.07
51496;BME280;37572;52.094;4.870;2022-09-21T04:53:24;102664.06;;;9.01;98.08
51496;BME280;37572;52.094;4.870;2022-09-21T04:55:50;102664.06;;;9.01;97.99
51496;BME280;37572;52.094;4.870;2022-09-21T04:58:15;102662.38;;;9.00;97.93
51496;BME280;37572;52.094;4.870;2022-09-21T05:00:40;102661.38;;;9.01;98.31
51496;BME280;37572;52.094;4.870;2022-09-21T05:03:05;102662.06;;;9.03;97.83
51496;BME280;37572;52.094;4.870;2022-09-21T05:05:31;102663.59;;;9.06;97.99
51496;BME280;37572;52.094;4.870;2022-09-21T05:07:57;102662.78;;;9.05;98.00
51496;BME280;37572;52.094;4.870;2022-09-21T05:10:22;102665.94;;;9.01;98.06
51496;BME280;37572;52.094;4.870;2022-09-21T05:12:47;102666.38;;;8.96;97.11
51496;BME280;37572;52.094;4.870;2022-09-21T05:15:13;102665.69;;;8.94;96.55
51496;BME280;37572;52.094;4.870;2022-09-21T05:17:39;102668.66;;;8.91;96.64
51496;BME280;37572;52.094;4.870;2022-09-21T05:20:05;102670.75;;;8.97;97.73
51496;BME280;37572;52.094;4.870;2022-09-21T05:22:31;102672.81;;;9.03;97.82
51496;BME280;37572;52.094;4.870;2022-09-21T05:24:56;102673.38;;;9.07;97.95
51496;BME280;37572;52.094;4.870;2022-09-21T05:27:21;102670.69;;;9.07;98.03
51496;BME280;37572;52.094;4.870;2022-09-21T05:29:47;102669.00;;;9.06;97.37
51496;BME280;37572;52.094;4.870;2022-09-21T05:32:22;102667.91;;;8.99;97.56
51496;BME280;37572;52.094;4.870;2022-09-21T05:35:04;102670.59;;;8.99;97.59
51496;BME280;37572;52.094;4.870;2022-09-21T05:37:47;102667.44;;;9.03;98.05
51496;BME280;37572;52.094;4.870;2022-09-21T05:40:15;102671.16;;;9.02;97.65
51496;BME280;37572;52.094;4.870;2022-09-21T05:42:40;102672.13;;;9.01;97.66
51496;BME280;37572;52.094;4.870;2022-09-21T05:45:07;102669.44;;;9.01;97.69
51496;BME280;37572;52.094;4.870;2022-09-21T05:47:37;102671.53;;;9.07;98.04
51496;BME280;37572;52.094;4.870;2022-09-21T05:55:29;102678.44;;;9.28;99.67
51496;BME280;37572;52.094;4.870;2022-09-21T05:58:09;102683.34;;;9.33;99.51
51496;BME280;37572;52.094;4.870;2022-09-21T06:00:51;102687.03;;;9.32;98.79
51496;BME280;37572;52.094;4.870;2022-09-21T06:03:26;102694.09;;;9.33;98.97
51496;BME280;37572;52.094;4.870;2022-09-21T06:05:53;102692.09;;;9.35;98.12
51496;BME280;37572;52.094;4.870;2022-09-21T06:08:18;102692.09;;;9.35;98.60
51496;BME280;37572;52.094;4.870;2022-09-21T06:10:43;102697.00;;;9.39;98.87
51496;BME280;37572;52.094;4.870;2022-09-21T06:13:09;102695.22;;;9.48;98.43
51496;BME280;37572;52.094;4.870;2022-09-21T06:15:35;102697.13;;;9.56;99.00
51496;BME280;37572;52.094;4.870;2022-09-21T06:18:05;102703.94;;;9.68;99.18
51496;BME280;37572;52.094;4.870;2022-09-21T06:20:31;102697.31;;;9.80;99.02
51496;BME280;37572;52.094;4.870;2022-09-21T06:23:05;102700.03;;;9.89;99.59
51496;BME280;37572;52.094;4.870;2022-09-21T06:25:30;102692.19;;;9.95;99.88
51496;BME280;37572;52.094;4.870;2022-09-21T06:28:02;102700.63;;;10.00;99.12
51496;BME280;37572;52.094;4.870;2022-09-21T06:30:28;102706.03;;;10.09;98.03
51496;BME280;37572;52.094;4.870;2022-09-21T06:32:57;102689.56;;;10.12;98.99
51496;BME280;37572;52.094;4.870;2022-09-21T06:35:23;102696.16;;;10.17;99.33
51496;BME280;37572;52.094;4.870;2022-09-21T06:37:48;102700.91;;;10.24;98.79
51496;BME280;37572;52.094;4.870;2022-09-21T06:40:13;102698.09;;;10.33;98.95
51496;BME280;37572;52.094;4.870;2022-09-21T06:42:39;102698.47;;;10.39;100.00
51496;BME280;37572;52.094;4.870;2022-09-21T06:45:04;102696.47;;;10.49;100.00
51496;BME280;37572;52.094;4.870;2022-09-21T06:47:30;102698.22;;;10.58;100.00
51496;BME280;37572;52.094;4.870;2022-09-21T06:49:55;102693.84;;;10.65;100.00
51496;BME280;37572;52.094;4.870;2022-09-21T06:52:21;102700.09;;;10.74;100.00
51496;BME280;37572;52.094;4.870;2022-09-21T06:54:46;102699.44;;;10.88;100.00
51496;BME280;37572;52.094;4.870;2022-09-21T06:57:11;102693.72;;;10.92;100.00
51496;BME280;37572;52.094;4.870;2022-09-21T06:59:37;102698.00;;;11.11;100.00
51496;BME280;37572;52.094;4.870;2022-09-21T07:02:02;102708.47;;;11.30;100.00
51496;BME280;37572;52.094;4.870;2022-09-21T07:04:27;102705.59;;;11.56;100.00
51496;BME280;37572;52.094;4.870;2022-09-21T07:06:53;102713.31;;;11.84;100.00
51496;BME280;37572;52.094;4.870;2022-09-21T07:09:19;102709.56;;;12.10;99.41
51496;BME280;37572;52.094;4.870;2022-09-21T07:11:44;102713.66;;;12.37;98.49
51496;BME280;37572;52.094;4.870;2022-09-21T07:14:10;102703.53;;;12.71;98.95
51496;BME280;37572;52.094;4.870;2022-09-21T07:16:35;102715.97;;;13.11;96.98
51496;BME280;37572;52.094;4.870;2022-09-21T07:19:01;102715.59;;;13.61;93.99
51496;BME280;37572;52.094;4.870;2022-09-21T07:21:28;102717.44;;;14.13;91.17
51496;BME280;37572;52.094;4.870;2022-09-21T07:23:53;102716.00;;;14.62;87.56
51496;BME280;37572;52.094;4.870;2022-09-21T07:26:19;102718.28;;;15.16;85.74
51496;BME280;37572;52.094;4.870;2022-09-21T07:28:46;102721.00;;;15.66;83.13
51496;BME280;37572;52.094;4.870;2022-09-21T07:31:14;102728.81;;;16.04;80.69
51496;BME280;37572;52.094;4.870;2022-09-21T07:33:41;102724.16;;;16.27;78.18
51496;BME280;37572;52.094;4.870;2022-09-21T07:36:07;102726.72;;;16.41;77.48
51496;BME280;37572;52.094;4.870;2022-09-21T07:38:37;102731.13;;;16.43;75.26
51496;BME280;37572;52.094;4.870;2022-09-21T07:41:06;102719.53;;;16.27;74.46
51496;BME280;37572;52.094;4.870;2022-09-21T07:43:32;102725.34;;;16.17;76.36
51496;BME280;37572;52.094;4.870;2022-09-21T07:45:58;102723.38;;;16.04;77.25
51496;BME280;37572;52.094;4.870;2022-09-21T07:48:25;102712.84;;;15.88;74.71
51496;BME280;37572;52.094;4.870;2022-09-21T07:50:51;102712.84;;;15.88;75.51
51496;BME280;37572;52.094;4.870;2022-09-21T07:53:16;102710.97;;;15.89;77.17
51496;BME280;37572;52.094;4.870;2022-09-21T07:55:42;102713.88;;;15.87;77.96
51496;BME280;37572;52.094;4.870;2022-09-21T07:58:08;102711.56;;;15.84;76.62
51496;BME280;37572;52.094;4.870;2022-09-21T08:00:51;102714.59;;;16.02;76.28
51496;BME280;37572;52.094;4.870;2022-09-21T08:03:17;102718.44;;;16.15;73.49
51496;BME280;37572;52.094;4.870;2022-09-21T08:05:42;102715.34;;;16.25;69.93
51496;BME280;37572;52.094;4.870;2022-09-21T08:08:07;102718.16;;;16.45;70.67
51496;BME280;37572;52.094;4.870;2022-09-21T08:10:33;102721.38;;;16.62;70.13
51496;BME280;37572;52.094;4.870;2022-09-21T08:12:59;102713.50;;;16.80;68.74
51496;BME280;37572;52.094;4.870;2022-09-21T08:15:25;102718.16;;;17.00;66.52
51496;BME280;37572;52.094;4.870;2022-09-21T08:17:51;102712.72;;;17.06;65.64
51496;BME280;37572;52.094;4.870;2022-09-21T08:20:17;102726.75;;;17.03;66.80
51496;BME280;37572;52.094;4.870;2022-09-21T08:22:43;102732.91;;;16.70;64.00
51496;BME280;37572;52.094;4.870;2022-09-21T08:25:08;102728.75;;;16.81;67.79
51496;BME280;37572;52.094;4.870;2022-09-21T08:27:35;102740.06;;;16.85;64.77
51496;BME280;37572;52.094;4.870;2022-09-21T08:30:01;102738.47;;;16.97;67.69
51496;BME280;37572;52.094;4.870;2022-09-21T08:32:27;102735.13;;;17.02;66.73
51496;BME280;37572;52.094;4.870;2022-09-21T08:34:52;102739.28;;;16.98;64.77
51496;BME280;37572;52.094;4.870;2022-09-21T08:37:17;102741.31;;;16.82;65.44
51496;BME280;37572;52.094;4.870;2022-09-21T08:39:43;102739.09;;;16.99;67.67
51496;BME280;37572;52.094;4.870;2022-09-21T08:42:24;102740.13;;;16.98;69.20
51496;BME280;37572;52.094;4.870;2022-09-21T08:45:10;102739.97;;;17.13;67.65
51496;BME280;37572;52.094;4.870;2022-09-21T08:50:30;102737.47;;;17.25;63.98
51496;BME280;37572;52.094;4.870;2022-09-21T08:53:03;102738.72;;;17.42;64.29
51496;BME280;37572;52.094;4.870;2022-09-21T08:55:30;102743.78;;;17.59;65.40
51496;BME280;37572;52.094;4.870;2022-09-21T08:57:55;102742.69;;;17.73;63.57
51496;BME280;37572;52.094;4.870;2022-09-21T09:00:21;102746.28;;;17.74;63.05
51496;BME280;37572;52.094;4.870;2022-09-21T09:10:42;102753.72;;;18.45;60.95
51496;BME280;37572;52.094;4.870;2022-09-21T09:13:29;102752.50;;;18.28;56.25
51496;BME280;37572;52.094;4.870;2022-09-21T09:18:48;102755.47;;;18.20;52.81
51496;BME280;37572;52.094;4.870;2022-09-21T09:21:21;102755.19;;;18.41;52.47
51496;BME280;37572;52.094;4.870;2022-09-21T09:23:53;102754.44;;;18.72;54.67
51496;BME280;37572;52.094;4.870;2022-09-21T09:26:48;102757.97;;;18.86;54.04
51496;BME280;37572;52.094;4.870;2022-09-21T09:29:23;102758.59;;;18.88;54.78
51496;BME280;37572;52.094;4.870;2022-09-21T09:31:53;102764.78;;;19.09;55.25
51496;BME280;37572;52.094;4.870;2022-09-21T09:34:21;102759.38;;;19.34;57.01
51496;BME280;37572;52.094;4.870;2022-09-21T09:36:55;102753.63;;;19.68;56.07
51496;BME280;37572;52.094;4.870;2022-09-21T09:39:22;102764.56;;;19.93;53.92
51496;BME280;37572;52.094;4.870;2022-09-21T09:44:32;102754.41;;;20.00;52.54
51496;BME280;37572;52.094;4.870;2022-09-21T09:50:04;102747.88;;;19.76;53.42
51496;BME280;37572;52.094;4.870;2022-09-21T09:52:31;102750.16;;;19.54;53.29
51496;BME280;37572;52.094;4.870;2022-09-21T09:54:59;102750.38;;;19.52;54.38
51496;BME280;37572;52.094;4.870;2022-09-21T09:57:32;102746.31;;;19.36;54.57
51496;BME280;37572;52.094;4.870;2022-09-21T10:00:07;102746.47;;;19.16;53.54
51496;BME280;37572;52.094;4.870;2022-09-21T10:02:53;102746.69;;;19.15;54.34
51496;BME280;37572;52.094;4.870;2022-09-21T10:07:45;102745.44;;;19.11;56.34
51496;BME280;37572;52.094;4.870;2022-09-21T10:10:30;102749.94;;;19.30;53.63
51496;BME280;37572;52.094;4.870;2022-09-21T10:15:29;102745.13;;;18.94;51.97
51496;BME280;37572;52.094;4.870;2022-09-21T10:18:17;102745.38;;;18.79;52.04
51496;BME280;37572;52.094;4.870;2022-09-21T10:20:55;102748.16;;;19.11;54.18
51496;BME280;37572;52.094;4.870;2022-09-21T10:23:21;102746.66;;;19.47;54.20
51496;BME280;37572;52.094;4.870;2022-09-21T10:25:57;102745.28;;;19.88;54.13
51496;BME280;37572;52.094;4.870;2022-09-21T10:28:24;102751.22;;;20.40;54.01
51496;BME280;37572;52.094;4.870;2022-09-21T10:31:07;102745.72;;;21.08;50.60
51496;BME280;37572;52.094;4.870;2022-09-21T10:33:33;102749.31;;;21.08;48.99
51496;BME280;37572;52.094;4.870;2022-09-21T10:36:23;102732.84;;;20.66;46.89
51496;BME280;37572;52.094;4.870;2022-09-21T10:38:49;102740.75;;;20.37;49.82
51496;BME280;37572;52.094;4.870;2022-09-21T10:41:16;102747.06;;;20.19;50.83
51496;BME280;37572;52.094;4.870;2022-09-21T10:43:41;102739.59;;;20.08;47.64
51496;BME280;37572;52.094;4.870;2022-09-21T10:46:08;102739.44;;;20.21;49.55
51496;BME280;37572;52.094;4.870;2022-09-21T10:48:34;102736.41;;;20.48;50.08
51496;BME280;37572;52.094;4.870;2022-09-21T10:51:02;102737.75;;;20.57;46.54
51496;BME280;37572;52.094;4.870;2022-09-21T10:53:32;102733.03;;;20.83;45.23
51496;BME280;37572;52.094;4.870;2022-09-21T10:56:05;102731.72;;;20.85;47.16
51496;BME280;37572;52.094;4.870;2022-09-21T10:58:33;102744.34;;;21.17;48.63
51496;BME280;37572;52.094;4.870;2022-09-21T11:01:12;102721.81;;;21.27;45.07
51496;BME280;37572;52.094;4.870;2022-09-21T11:06:15;102720.47;;;21.60;45.73
51496;BME280;37572;52.094;4.870;2022-09-21T11:08:47;102715.59;;;21.85;45.81
51496;BME280;37572;52.094;4.870;2022-09-21T11:16:36;102721.09;;;20.59;47.27
51496;BME280;37572;52.094;4.870;2022-09-21T11:22:32;102721.28;;;21.36;45.54
51496;BME280;37572;52.094;4.870;2022-09-21T11:25:13;102714.97;;;21.83;43.31
51496;BME280;37572;52.094;4.870;2022-09-21T11:27:48;102722.44;;;22.35;43.86
51496;BME280;37572;52.094;4.870;2022-09-21T11:30:18;102726.09;;;22.53;40.76
51496;BME280;37572;52.094;4.870;2022-09-21T11:41:02;102711.72;;;23.20;42.62
51496;BME280;37572;52.094;4.870;2022-09-21T11:43:58;102711.84;;;23.64;39.09
51496;BME280;37572;52.094;4.870;2022-09-21T11:49:38;102710.19;;;25.28;35.81
51496;BME280;37572;52.094;4.870;2022-09-21T11:57:45;102703.56;;;27.14;32.10
51496;BME280;37572;52.094;4.870;2022-09-21T12:00:16;102703.59;;;26.15;32.64
51496;BME280;37572;52.094;4.870;2022-09-21T12:05:21;102697.75;;;24.17;35.87
51496;BME280;37572;52.094;4.870;2022-09-21T12:08:17;102699.00;;;25.40;34.81
51496;BME280;37572;52.094;4.870;2022-09-21T12:21:44;102692.78;;;27.08;30.63
51496;BME280;37572;52.094;4.870;2022-09-21T12:24:24;102699.38;;;28.89;27.53
51496;BME280;37572;52.094;4.870;2022-09-21T12:26:54;102694.34;;;31.03;25.44
51496;BME280;37572;52.094;4.870;2022-09-21T12:29:40;102693.44;;;33.06;23.69
51496;BME280;37572;52.094;4.870;2022-09-21T12:32:32;102701.66;;;33.34;22.80
51496;BME280;37572;52.094;4.870;2022-09-21T12:35:04;102695.94;;;34.54;21.59
51496;BME280;37572;52.094;4.870;2022-09-21T12:37:37;102696.66;;;36.32;20.28
51496;BME280;37572;52.094;4.870;2022-09-21T12:40:15;102697.81;;;36.52;18.02
51496;BME280;37572;52.094;4.870;2022-09-21T12:42:53;102697.81;;;36.73;18.38
51496;BME280;37572;52.094;4.870;2022-09-21T12:45:27;102691.66;;;35.57;17.27
51496;BME280;37572;52.094;4.870;2022-09-21T12:50:55;102684.81;;;36.68;17.97
51496;BME280;37572;52.094;4.870;2022-09-21T12:53:23;102690.53;;;37.63;18.47
51496;BME280;37572;52.094;4.870;2022-09-21T12:56:05;102683.03;;;37.92;17.87
51496;BME280;37572;52.094;4.870;2022-09-21T12:58:46;102680.69;;;36.66;16.37
51496;BME280;37572;52.094;4.870;2022-09-21T13:07:10;102657.22;;;28.87;23.34
51496;BME280;37572;52.094;4.870;2022-09-21T13:09:41;102636.91;;;27.16;27.78
51496;BME280;37572;52.094;4.870;2022-09-21T13:12:24;102630.50;;;25.70;30.22
51496;BME280;37572;52.094;4.870;2022-09-21T13:14:58;102631.94;;;24.97;32.25
51496;BME280;37572;52.094;4.870;2022-09-21T13:17:30;102627.47;;;24.09;33.38
51496;BME280;37572;52.094;4.870;2022-09-21T13:20:15;102623.50;;;23.39;36.37
51496;BME280;37572;52.094;4.870;2022-09-21T13:22:41;102623.63;;;22.98;36.37
51496;BME280;37572;52.094;4.870;2022-09-21T13:25:23;102616.22;;;22.36;36.45
51496;BME280;37572;52.094;4.870;2022-09-21T13:30:42;102613.78;;;21.70;37.92
51496;BME280;37572;52.094;4.870;2022-09-21T13:38:55;102614.91;;;20.79;39.63
51496;BME280;37572;52.094;4.870;2022-09-21T13:43:47;102613.19;;;20.06;41.13
51496;BME280;37572;52.094;4.870;2022-09-21T13:49:37;102607.91;;;19.49;44.87
51496;BME280;37572;52.094;4.870;2022-09-21T13:57:40;102603.44;;;18.85;47.17
51496;BME280;37572;52.094;4.870;2022-09-21T14:02:52;102603.34;;;18.67;49.05
51496;BME280;37572;52.094;4.870;2022-09-21T14:07:53;102603.88;;;18.50;47.07
51496;BME280;37572;52.094;4.870;2022-09-21T14:10:20;102603.09;;;18.36;47.00
51496;BME280;37572;52.094;4.870;2022-09-21T14:12:47;102598.09;;;18.33;49.19
51496;BME280;37572;52.094;4.870;2022-09-21T14:17:42;102596.03;;;18.22;53.47
51496;BME280;37572;52.094;4.870;2022-09-21T14:20:25;102595.03;;;18.16;55.96
51496;BME280;37572;52.094;4.870;2022-09-21T14:25:52;102595.25;;;18.15;51.94
51496;BME280;37572;52.094;4.870;2022-09-21T14:28:37;102595.16;;;18.35;49.26
51496;BME280;37572;52.094;4.870;2022-09-21T14:31:19;102587.28;;;18.52;51.01
51496;BME280;37572;52.094;4.870;2022-09-21T14:33:47;102583.44;;;18.60;50.12
51496;BME280;37572;52.094;4.870;2022-09-21T14:36:18;102588.59;;;18.43;46.03
51496;BME280;37572;52.094;4.870;2022-09-21T14:38:50;102583.00;;;18.31;44.90
51496;BME280;37572;52.094;4.870;2022-09-21T14:41:22;102582.09;;;18.44;45.87
51496;BME280;37572;52.094;4.870;2022-09-21T14:43:52;102588.16;;;18.46;45.73
51496;BME280;37572;52.094;4.870;2022-09-21T14:47:12;102589.50;;;18.62;46.23
51496;BME280;37572;52.094;4.870;2022-09-21T14:49:35;102587.50;;;18.50;44.54
51496;BME280;37572;52.094;4.870;2022-09-21T14:58:00;102570.34;;;18.43;46.34
51496;BME280;37572;52.094;4.870;2022-09-21T15:11:19;102555.44;;;18.39;46.10
51496;BME280;37572;52.094;4.870;2022-09-21T15:13:50;102563.03;;;18.37;46.42
51496;BME280;37572;52.094;4.870;2022-09-21T15:16:49;102547.31;;;18.32;45.99
51496;BME280;37572;52.094;4.870;2022-09-21T15:19:26;102550.72;;;18.28;48.24
51496;BME280;37572;52.094;4.870;2022-09-21T15:21:54;102544.88;;;18.24;47.00
51496;BME280;37572;52.094;4.870;2022-09-21T15:26:50;102541.34;;;18.17;48.46
51496;BME280;37572;52.094;4.870;2022-09-21T15:29:25;102540.25;;;18.25;47.80
51496;BME280;37572;52.094;4.870;2022-09-21T15:31:52;102541.69;;;18.27;49.19
51496;BME280;37572;52.094;4.870;2022-09-21T15:34:18;102546.13;;;18.22;52.03
51496;BME280;37572;52.094;4.870;2022-09-21T15:36:44;102531.69;;;18.14;50.62
51496;BME280;37572;52.094;4.870;2022-09-21T15:39:35;102540.13;;;18.06;49.33
51496;BME280;37572;52.094;4.870;2022-09-21T15:42:11;102535.72;;;18.05;50.21
51496;BME280;37572;52.094;4.870;2022-09-21T15:44:42;102541.84;;;18.00;49.86